Time;durP1;ratioP1;P1;durP2;ratioP2;P2;SDS_P1;SDS_P2;PMS_P1;PMS_P2;Temp;Humidity;BMP_temperature;BMP_pressure;BME280_temperature;BME280_humidity;BME280_pressure;Samples;Min_cycle;Max_cycle;Signal;HPM_P1;HPM_P2
2022/05/30 00:00:20;;;;;;;12.23;3.70;;;;;;;9.42;86.36;101371.41;4964879;28;20397;-78
2022/05/30 00:02:46;;;;;;;8.68;3.60;;;;;;;9.40;86.29;101365.41;4989870;28;20065;-78
2022/05/30 00:05:13;;;;;;;7.68;3.47;;;;;;;9.35;83.45;101363.72;4971021;28;20027;-78
2022/05/30 00:07:39;;;;;;;12.45;3.50;;;;;;;9.33;86.49;101362.91;4969693;28;20037;-78
2022/05/30 00:10:07;;;;;;;8.68;3.22;;;;;;;9.33;86.44;101357.72;4958934;28;20043;-78
2022/05/30 00:12:35;;;;;;;9.52;3.20;;;;;;;9.27;85.84;101355.22;4970257;28;20418;-78
2022/05/30 00:15:01;;;;;;;8.40;3.22;;;;;;;9.24;86.27;101347.47;4968437;28;20027;-78
2022/05/30 00:17:27;;;;;;;10.48;3.38;;;;;;;9.19;83.98;101354.41;4958908;28;20057;-78
2022/05/30 00:19:52;;;;;;;9.07;3.25;;;;;;;9.16;85.88;101347.53;4965940;28;20022;-78
2022/05/30 00:22:18;;;;;;;9.90;3.25;;;;;;;9.07;86.18;101342.47;4968925;28;20030;-78
2022/05/30 00:24:43;;;;;;;10.02;3.35;;;;;;;9.06;86.39;101344.19;4985402;28;20027;-78
2022/05/30 00:27:10;;;;;;;12.55;3.42;;;;;;;9.03;86.40;101346.78;4967771;28;20133;-78
2022/05/30 00:29:35;;;;;;;10.93;3.20;;;;;;;8.99;86.73;101345.13;4974638;28;20039;-78
2022/05/30 00:32:02;;;;;;;9.32;3.58;;;;;;;8.95;87.38;101348.59;4978975;28;20029;-78
2022/05/30 00:34:27;;;;;;;9.55;3.70;;;;;;;8.92;87.39;101350.34;4970508;28;20322;-78
2022/05/30 00:36:53;;;;;;;12.35;4.30;;;;;;;8.90;87.78;101349.50;4968344;28;20113;-78
2022/05/30 00:39:19;;;;;;;11.40;4.03;;;;;;;8.85;87.83;101349.56;4966581;28;20023;-78
2022/05/30 00:41:45;;;;;;;10.63;4.13;;;;;;;8.85;87.85;101351.28;4975621;28;20385;-78
2022/05/30 00:44:10;;;;;;;12.85;4.72;;;;;;;8.83;88.57;101343.53;4965122;28;20023;-78
2022/05/30 00:46:36;;;;;;;12.75;4.97;;;;;;;8.80;88.50;101347.88;4969214;28;20228;-78
2022/05/30 00:49:08;;;;;;;11.90;4.47;;;;;;;8.78;88.99;101337.56;4965387;28;20505;-78
2022/05/30 00:51:41;;;;;;;12.77;4.80;;;;;;;8.75;88.46;101341.88;4974815;28;20046;-78
2022/05/30 00:54:10;;;;;;;10.73;4.60;;;;;;;8.73;89.11;101343.63;4968603;28;20034;-78
2022/05/30 00:56:43;;;;;;;15.85;4.43;;;;;;;8.70;88.97;101337.63;4982810;28;20030;-78
2022/05/30 00:59:10;;;;;;;14.67;4.23;;;;;;;8.69;88.54;101346.22;4968272;28;20493;-78
2022/05/30 01:01:36;;;;;;;11.00;4.30;;;;;;;8.68;89.21;101341.94;4980038;28;20715;-78
2022/05/30 01:06:51;;;;;;;12.20;4.03;;;;;;;8.62;88.94;101339.41;4967315;28;20130;-78
2022/05/30 01:09:40;;;;;;;12.82;4.47;;;;;;;8.61;88.82;101339.41;4969222;28;20031;-78
2022/05/30 01:12:09;;;;;;;10.85;4.43;;;;;;;8.62;89.56;101341.97;4980844;28;20070;-78
2022/05/30 01:14:40;;;;;;;11.80;4.20;;;;;;;8.56;88.83;101336.88;4973734;28;20351;-78
2022/05/30 01:17:09;;;;;;;11.55;4.35;;;;;;;8.56;89.87;101331.69;4971885;28;20257;-78
2022/05/30 01:19:55;;;;;;;10.80;4.15;;;;;;;8.54;89.47;101341.16;4973744;28;20030;-78
2022/05/30 01:22:53;;;;;;;9.65;4.10;;;;;;;8.53;89.21;101333.47;4963660;28;20027;-78
2022/05/30 01:25:37;;;;;;;14.75;4.75;;;;;;;8.52;89.35;101339.50;4973163;28;20023;-78
2022/05/30 01:28:12;;;;;;;10.07;4.00;;;;;;;8.46;89.28;101335.19;4966989;28;20137;-78
2022/05/30 01:30:39;;;;;;;14.90;4.38;;;;;;;8.43;89.79;101336.97;4969740;28;20041;-78
2022/05/30 01:33:05;;;;;;;12.52;4.47;;;;;;;8.43;89.92;101335.25;4976617;28;20038;-78
2022/05/30 01:35:31;;;;;;;9.93;4.40;;;;;;;8.38;89.60;101333.56;4972014;28;20586;-78
2022/05/30 01:37:57;;;;;;;10.00;4.22;;;;;;;8.33;89.22;101337.00;4969812;28;20563;-78
2022/05/30 01:40:24;;;;;;;10.88;4.30;;;;;;;8.30;90.34;101329.31;4973223;28;20169;-78
2022/05/30 01:42:49;;;;;;;10.52;4.28;;;;;;;8.25;89.60;101323.28;4971342;28;20112;-77
2022/05/30 01:45:15;;;;;;;11.00;4.45;;;;;;;8.23;89.87;101317.25;4970537;28;20039;-77
2022/05/30 01:47:40;;;;;;;12.43;4.80;;;;;;;8.20;89.92;101327.59;4985344;28;20097;-77
2022/05/30 01:50:06;;;;;;;8.63;4.05;;;;;;;8.15;89.82;101315.59;4971279;28;20508;-77
2022/05/30 01:52:32;;;;;;;13.10;4.65;;;;;;;8.11;89.92;101317.34;4971621;28;20447;-77
2022/05/30 01:54:58;;;;;;;9.57;4.15;;;;;;;8.09;90.02;101323.38;4994070;28;20023;-77
2022/05/30 01:57:23;;;;;;;10.03;4.37;;;;;;;8.06;90.12;101325.97;4972320;28;20417;-77
2022/05/30 01:59:48;;;;;;;11.23;4.10;;;;;;;8.05;90.55;101322.53;4984936;28;20308;-77
2022/05/30 02:02:14;;;;;;;10.97;4.67;;;;;;;8.06;90.85;101320.78;4986427;28;20039;-77
2022/05/30 02:04:39;;;;;;;12.88;4.18;;;;;;;8.03;90.53;101313.94;4983759;28;20784;-77
2022/05/30 02:07:05;;;;;;;9.75;4.55;;;;;;;7.99;90.61;101321.69;4971526;28;20073;-77
2022/05/30 02:09:31;;;;;;;11.57;4.47;;;;;;;7.96;90.44;101322.59;4970612;28;20027;-77
2022/05/30 02:11:56;;;;;;;14.07;4.53;;;;;;;7.94;90.62;101317.44;4965665;28;20037;-77
2022/05/30 02:14:22;;;;;;;12.98;4.30;;;;;;;7.90;90.47;101320.91;4968491;28;20101;-77
2022/05/30 02:17:06;;;;;;;10.15;4.45;;;;;;;7.87;90.46;101313.16;4970681;28;20038;-77
2022/05/30 02:19:36;;;;;;;11.30;4.47;;;;;;;7.85;90.75;101317.47;4972287;28;20027;-77
2022/05/30 02:22:01;;;;;;;15.15;4.70;;;;;;;7.79;90.72;101314.91;4973494;28;20026;-77
2022/05/30 02:24:27;;;;;;;9.45;4.18;;;;;;;7.80;91.04;101319.22;4972072;28;20052;-77
2022/05/30 02:26:52;;;;;;;16.58;4.57;;;;;;;7.79;91.31;101316.63;4972854;28;20113;-77
2022/05/30 02:29:18;;;;;;;11.40;4.57;;;;;;;7.77;90.92;101314.09;4970030;28;20114;-78
2022/05/30 02:31:43;;;;;;;10.88;4.40;;;;;;;7.76;91.13;101314.94;4970632;28;20752;-77
2022/05/30 02:36:54;;;;;;;13.38;4.97;;;;;;;7.69;90.90;101315.84;4971905;28;20065;-77
2022/05/30 02:39:21;;;;;;;10.43;5.03;;;;;;;7.67;91.34;101309.81;4971890;28;20555;-77
2022/05/30 02:41:48;;;;;;;11.05;4.32;;;;;;;7.65;91.41;101305.53;4969988;28;20030;-77
2022/05/30 02:44:15;;;;;;;8.95;4.40;;;;;;;7.64;91.72;101307.28;4971639;28;20027;-77
2022/05/30 02:46:40;;;;;;;17.55;5.50;;;;;;;7.63;91.67;101312.44;4969589;28;20035;-77
2022/05/30 02:49:08;;;;;;;11.70;4.70;;;;;;;7.63;91.95;101312.44;4971882;28;20037;-77
2022/05/30 02:51:33;;;;;;;12.30;4.68;;;;;;;7.63;92.21;101300.38;4971899;28;20077;-77
2022/05/30 02:53:59;;;;;;;12.38;4.88;;;;;;;7.61;92.29;101306.41;4979644;28;20125;-77
2022/05/30 02:56:24;;;;;;;11.05;4.85;;;;;;;7.64;92.59;101307.28;4970291;28;20045;-77
2022/05/30 02:58:49;;;;;;;17.42;4.88;;;;;;;7.67;92.70;101301.22;4972005;28;20520;-77
2022/05/30 03:01:15;;;;;;;12.05;5.15;;;;;;;7.70;92.64;101301.22;4977470;28;20037;-77
2022/05/30 03:03:41;;;;;;;11.02;4.68;;;;;;;7.71;92.52;101306.34;4982371;28;20053;-77
2022/05/30 03:06:07;;;;;;;11.60;4.60;;;;;;;7.69;92.21;101305.53;4971233;28;20037;-77
2022/05/30 03:08:33;;;;;;;11.90;4.78;;;;;;;7.70;92.18;101308.97;4971746;28;20031;-78
2022/05/30 03:10:59;;;;;;;13.48;5.20;;;;;;;7.71;92.91;101310.69;4974876;28;20034;-77
2022/05/30 03:13:24;;;;;;;14.85;4.93;;;;;;;7.72;92.99;101310.66;4968813;28;20029;-77
2022/05/30 03:15:49;;;;;;;13.30;5.00;;;;;;;7.73;92.93;101309.78;4958906;28;20030;-77
2022/05/30 03:18:15;;;;;;;11.47;4.87;;;;;;;7.74;92.92;101308.94;4970643;28;20030;-77
2022/05/30 03:20:40;;;;;;;14.30;4.87;;;;;;;7.76;93.37;101314.94;4971210;28;20300;-77
2022/05/30 03:23:06;;;;;;;15.32;5.47;;;;;;;7.81;93.28;101320.06;4976596;28;20274;-77
2022/05/30 03:25:32;;;;;;;14.80;4.97;;;;;;;7.83;93.38;101318.34;4971558;28;20054;-77
2022/05/30 03:27:58;;;;;;;16.65;5.05;;;;;;;7.84;93.43;101320.94;4963023;28;20106;-77
2022/05/30 03:30:24;;;;;;;14.90;5.30;;;;;;;7.90;93.80;101317.47;4970691;28;20149;-77
2022/05/30 03:32:49;;;;;;;12.73;4.93;;;;;;;7.90;93.38;101314.88;4969090;28;20073;-77
2022/05/30 03:35:16;;;;;;;14.52;5.78;;;;;;;7.94;93.42;101314.00;4969376;28;20026;-77
2022/05/30 03:37:43;;;;;;;13.15;4.97;;;;;;;8.00;93.54;101318.25;4966385;28;20018;-77
2022/05/30 03:40:12;;;;;;;12.00;4.85;;;;;;;7.98;93.21;101313.13;4968227;28;20555;-77
2022/05/30 03:42:37;;;;;;;15.23;4.93;;;;;;;8.02;93.33;101319.97;4968476;28;20524;-77
2022/05/30 03:45:05;;;;;;;14.30;4.95;;;;;;;8.02;92.96;101326.84;4970698;28;20023;-77
2022/05/30 03:47:41;;;;;;;15.15;5.47;;;;;;;8.02;93.06;101326.84;4976121;28;20049;-77
2022/05/30 03:50:09;;;;;;;13.80;5.18;;;;;;;8.08;93.69;101326.81;4970843;28;20035;-77
2022/05/30 03:52:35;;;;;;;13.82;5.53;;;;;;;8.09;93.73;101329.41;4970057;28;20026;-77
2022/05/30 03:55:11;;;;;;;17.25;5.82;;;;;;;8.09;93.51;101326.81;4967597;28;20068;-77
2022/05/30 03:57:38;;;;;;;16.02;5.60;;;;;;;8.14;94.24;101325.06;4975204;28;20042;-77
2022/05/30 04:00:04;;;;;;;16.77;5.55;;;;;;;8.14;93.40;101322.47;4970828;28;20501;-78
2022/05/30 04:02:29;;;;;;;13.02;5.28;;;;;;;8.17;93.77;101325.06;4971206;28;20030;-78
2022/05/30 04:04:55;;;;;;;15.50;5.05;;;;;;;8.18;93.13;101321.59;4969714;28;20033;-78
2022/05/30 04:07:20;;;;;;;17.17;5.57;;;;;;;8.23;93.33;101319.00;4973518;28;20031;-77
2022/05/30 04:09:46;;;;;;;20.40;6.30;;;;;;;8.26;93.06;101314.63;4966930;28;20129;-77
2022/05/30 04:12:11;;;;;;;18.00;5.87;;;;;;;8.25;92.46;101310.38;4968874;28;20026;-77
2022/05/30 04:14:36;;;;;;;17.80;5.45;;;;;;;8.32;93.08;101316.38;4969526;28;20317;-77
2022/05/30 04:17:02;;;;;;;15.70;6.13;;;;;;;8.36;93.10;101314.63;4978123;28;20035;-78
2022/05/30 04:19:27;;;;;;;15.25;5.50;;;;;;;8.39;93.03;101315.47;4978557;28;20777;-77
2022/05/30 04:21:52;;;;;;;14.23;5.85;;;;;;;8.43;93.40;101318.88;4970690;28;20117;-77
2022/05/30 04:24:18;;;;;;;17.00;5.00;;;;;;;8.47;92.94;101316.25;4969882;28;20366;-77
2022/05/30 04:26:44;;;;;;;14.20;5.15;;;;;;;8.53;93.59;101316.19;4969709;28;20368;-77
2022/05/30 04:29:09;;;;;;;18.33;5.40;;;;;;;8.59;93.24;101316.19;4970267;28;20543;-78
2022/05/30 04:31:35;;;;;;;12.88;5.20;;;;;;;8.63;92.59;101317.84;4970514;28;20019;-77
2022/05/30 04:34:00;;;;;;;14.75;4.82;;;;;;;8.66;91.87;101324.75;4966637;28;20522;-78
2022/05/30 04:36:26;;;;;;;15.45;5.80;;;;;;;8.62;92.06;101305.81;4974958;28;20447;-78
2022/05/30 04:38:51;;;;;;;15.00;5.60;;;;;;;8.73;92.58;101318.66;4978934;28;20062;-78
2022/05/30 04:41:16;;;;;;;16.05;5.68;;;;;;;8.77;92.07;101327.22;4969649;28;20037;-77
2022/05/30 04:43:41;;;;;;;15.03;6.50;;;;;;;8.80;92.38;101320.31;4974324;28;20030;-78
2022/05/30 04:46:10;;;;;;;11.20;5.40;;;;;;;8.82;91.62;101326.31;4971796;28;20745;-78
2022/05/30 04:48:35;;;;;;;14.70;5.75;;;;;;;8.88;91.75;101323.66;4967902;28;20366;-78
2022/05/30 04:51:00;;;;;;;14.98;5.50;;;;;;;8.86;90.50;101316.81;4974205;28;20425;-78
2022/05/30 04:53:26;;;;;;;14.07;5.55;;;;;;;8.91;91.56;101315.88;4970804;28;20042;-78
2022/05/30 04:55:51;;;;;;;13.93;6.00;;;;;;;8.96;90.96;101321.88;4977077;28;20033;-78
2022/05/30 04:58:16;;;;;;;17.02;6.10;;;;;;;9.06;91.72;101326.09;4972318;28;20473;-78
2022/05/30 05:00:42;;;;;;;14.87;5.77;;;;;;;9.10;91.56;101321.75;4973793;28;20030;-78
2022/05/30 05:03:07;;;;;;;13.48;5.97;;;;;;;9.16;90.72;101329.44;4974576;28;20293;-78
2022/05/30 05:05:32;;;;;;;12.68;6.07;;;;;;;9.22;91.33;101339.72;4973981;28;20106;-78
2022/05/30 05:08:19;;;;;;;11.60;5.18;;;;;;;9.29;90.92;101343.94;4976862;28;20488;-77
2022/05/30 05:10:59;;;;;;;15.23;5.57;;;;;;;9.38;91.55;101351.63;4975670;28;20030;-78
2022/05/30 05:13:24;;;;;;;16.40;6.40;;;;;;;9.40;90.87;101341.25;4975514;28;20097;-78
2022/05/30 05:15:55;;;;;;;16.92;6.25;;;;;;;9.50;89.63;101337.69;4981301;28;20027;-78
2022/05/30 05:18:20;;;;;;;18.90;6.47;;;;;;;9.64;87.38;101345.28;4973724;28;20105;-78
2022/05/30 05:20:45;;;;;;;12.17;5.67;;;;;;;9.63;86.88;101339.25;4974271;28;20110;-78
2022/05/30 05:23:13;;;;;;;12.70;5.72;;;;;;;9.58;87.94;101343.63;4972292;28;20282;-78
2022/05/30 05:25:40;;;;;;;19.60;5.85;;;;;;;9.46;87.45;101347.22;4980885;28;20503;-78
2022/05/30 05:28:06;;;;;;;13.05;5.95;;;;;;;9.43;88.92;101343.81;4972693;28;20516;-78
2022/05/30 05:30:32;;;;;;;14.82;5.47;;;;;;;9.39;89.26;101343.00;4978785;28;20031;-78
2022/05/30 05:32:58;;;;;;;13.30;5.70;;;;;;;9.37;89.61;101339.56;4970447;28;20390;-78
2022/05/30 05:35:23;;;;;;;12.40;5.20;;;;;;;9.41;89.25;101348.16;4973487;28;20026;-78
2022/05/30 05:37:48;;;;;;;10.95;5.22;;;;;;;9.42;88.31;101344.66;4963396;28;20034;-78
2022/05/30 05:40:14;;;;;;;11.60;4.97;;;;;;;9.42;88.07;101348.13;4973252;28;20026;-78
2022/05/30 05:42:39;;;;;;;14.00;4.97;;;;;;;9.44;89.06;101351.56;4969403;28;20031;-77
2022/05/30 05:45:05;;;;;;;11.07;4.88;;;;;;;9.43;86.58;101355.00;4971227;28;20434;-78
2022/05/30 05:47:30;;;;;;;12.20;5.40;;;;;;;9.46;85.89;101359.31;4973166;28;20031;-78
2022/05/30 05:49:56;;;;;;;11.57;4.85;;;;;;;9.50;87.38;101353.22;4972135;28;20089;-83
2022/05/30 05:52:25;;;;;;;10.27;5.10;;;;;;;9.52;86.82;101354.91;4972961;28;20412;-82
2022/05/30 05:54:53;;;;;;;9.57;4.72;;;;;;;9.60;85.46;101369.50;4973281;28;20125;-83
2022/05/30 05:57:19;;;;;;;13.60;4.75;;;;;;;9.69;88.32;101367.66;4973566;28;20041;-83
2022/05/30 05:59:44;;;;;;;10.05;4.28;;;;;;;9.72;86.96;101365.03;4967012;28;20051;-83
2022/05/30 06:02:09;;;;;;;11.07;4.03;;;;;;;9.74;86.77;101365.03;4981246;28;20245;-83
2022/05/30 06:04:37;;;;;;;10.00;4.57;;;;;;;9.81;86.40;101364.09;4956265;28;20714;-83
2022/05/30 06:07:02;;;;;;;11.45;5.10;;;;;;;9.89;87.19;101363.09;4970620;28;20056;-83
2022/05/30 06:09:28;;;;;;;14.68;4.95;;;;;;;9.98;87.24;101366.44;4966963;28;20031;-83
2022/05/30 06:11:53;;;;;;;12.35;4.65;;;;;;;10.03;86.98;101360.31;4974624;28;20030;-83
2022/05/30 06:14:19;;;;;;;10.80;4.10;;;;;;;10.09;84.24;101365.44;4972713;28;20058;-82
2022/05/30 06:16:45;;;;;;;11.10;3.40;;;;;;;10.18;84.34;101367.06;4973052;28;20365;-83
2022/05/30 06:19:10;;;;;;;8.20;2.97;;;;;;;10.25;82.00;101369.56;4969850;28;20027;-83
2022/05/30 06:21:36;;;;;;;8.73;3.40;;;;;;;10.38;82.30;101366.78;4970204;28;20122;-83
2022/05/30 06:24:02;;;;;;;10.50;3.30;;;;;;;10.50;82.23;101370.09;4965706;28;20173;-84
2022/05/30 06:26:27;;;;;;;13.68;3.88;;;;;;;10.59;82.36;101366.47;4972700;28;20050;-82
2022/05/30 06:28:57;;;;;;;10.40;3.60;;;;;;;10.68;83.02;101372.38;4968438;28;20026;-83
2022/05/30 06:31:26;;;;;;;9.05;3.13;;;;;;;10.69;80.45;101368.91;4977162;28;20277;-82
2022/05/30 06:33:53;;;;;;;11.57;3.47;;;;;;;10.79;79.30;101379.13;4972155;28;20030;-83
2022/05/30 06:36:20;;;;;;;9.00;3.17;;;;;;;10.89;80.16;101371.19;4971399;28;20142;-83
2022/05/30 06:38:47;;;;;;;11.02;3.17;;;;;;;10.95;78.99;101373.66;4970545;28;20482;-82
2022/05/30 06:41:27;;;;;;;8.73;2.90;;;;;;;11.02;81.42;101379.59;4970149;28;20412;-82
2022/05/30 06:43:56;;;;;;;9.23;2.03;;;;;;;11.03;73.79;101378.72;4972256;28;20045;-82
2022/05/30 06:46:22;;;;;;;7.72;2.60;;;;;;;10.99;77.53;101374.47;4972538;28;20030;-82
2022/05/30 06:48:48;;;;;;;6.38;2.22;;;;;;;10.95;76.35;101376.25;4968828;28;20101;-78
2022/05/30 06:51:17;;;;;;;6.72;1.95;;;;;;;10.99;77.90;101379.66;4971491;28;20383;-78
2022/05/30 06:53:43;;;;;;;7.55;1.98;;;;;;;11.06;80.46;101373.47;4976778;28;20278;-78
2022/05/30 06:56:17;;;;;;;7.90;2.20;;;;;;;11.18;76.61;101378.47;4963169;28;20441;-77
2022/05/30 06:58:44;;;;;;;9.13;2.80;;;;;;;11.31;80.51;101374.78;4967332;28;20145;-76
2022/05/30 07:01:10;;;;;;;6.10;2.53;;;;;;;11.42;75.71;101379.75;4964959;28;20027;-77
2022/05/30 07:03:37;;;;;;;8.23;3.00;;;;;;;11.56;77.70;101379.50;4959782;28;20046;-78
2022/05/30 07:06:07;;;;;;;7.07;2.60;;;;;;;11.64;72.42;101381.06;4966845;28;20031;-78
2022/05/30 07:08:33;;;;;;;4.13;2.17;;;;;;;11.74;73.22;101384.34;4964910;28;20031;-77
2022/05/30 07:11:01;;;;;;;6.35;2.33;;;;;;;11.82;72.30;101382.47;4971516;28;20035;-77
2022/05/30 07:13:26;;;;;;;6.38;2.50;;;;;;;11.93;70.95;101379.66;4969892;28;20030;-78
2022/05/30 07:15:52;;;;;;;5.47;2.28;;;;;;;12.09;70.49;101381.91;4971779;28;20027;-78
2022/05/30 07:18:18;;;;;;;7.22;2.25;;;;;;;12.35;71.49;101381.31;4971849;28;20377;-78
2022/05/30 07:20:44;;;;;;;4.65;1.85;;;;;;;12.63;69.85;101382.41;4971756;28;20342;-77
2022/05/30 07:23:10;;;;;;;6.78;2.30;;;;;;;12.88;69.72;101377.50;4971438;28;20480;-78
2022/05/30 07:25:38;;;;;;;8.23;2.47;;;;;;;13.16;69.11;101379.44;4971583;28;20119;-78
2022/05/30 07:28:04;;;;;;;6.50;2.70;;;;;;;13.41;67.98;101386.56;4971190;28;20026;-78
2022/05/30 07:30:30;;;;;;;8.25;2.60;;;;;;;13.67;66.84;101382.38;4971447;28;20034;-78
2022/05/30 07:32:56;;;;;;;5.03;1.60;;;;;;;13.80;63.57;101381.13;4971525;28;20035;-78
2022/05/30 07:35:22;;;;;;;6.57;2.13;;;;;;;14.16;66.51;101379.22;4971646;28;20031;-78
2022/05/30 07:37:50;;;;;;;3.90;1.60;;;;;;;14.88;58.42;101375.22;4970323;28;20030;-78
2022/05/30 07:40:15;;;;;;;7.35;1.90;;;;;;;16.05;54.66;101377.16;4970013;28;20038;-78
2022/05/30 07:42:41;;;;;;;4.00;1.80;;;;;;;17.22;53.96;101371.59;4971337;28;20030;-78
2022/05/30 07:45:08;;;;;;;6.75;2.05;;;;;;;18.26;50.31;101368.66;4971181;28;20058;-78
2022/05/30 07:47:34;;;;;;;5.30;2.10;;;;;;;19.21;44.43;101364.88;4971037;28;20429;-79
2022/05/30 07:50:02;;;;;;;6.37;2.30;;;;;;;19.87;44.45;101362.28;4971403;28;20493;-84
2022/05/30 07:52:29;;;;;;;5.07;2.17;;;;;;;20.40;41.80;101369.91;4971309;28;20842;-83
2022/05/30 07:54:55;;;;;;;5.97;2.50;;;;;;;20.85;42.70;101355.88;4971405;28;20437;-84
2022/05/30 07:57:50;;;;;;;7.82;2.25;;;;;;;21.33;40.84;101351.31;4969655;28;20489;-84
2022/05/30 08:00:06;;;;;;;6.05;2.33;;;;;;;22.10;41.50;101364.16;4971503;28;20043;-84
2022/05/30 08:02:31;;;;;;;5.53;2.00;;;;;;;22.69;40.47;101355.81;4970901;28;20559;-84
2022/05/30 08:04:57;;;;;;;4.40;2.20;;;;;;;23.06;36.17;101356.06;4970739;28;20532;-83
2022/05/30 08:07:22;;;;;;;5.37;2.40;;;;;;;23.18;35.70;101355.22;4970616;28;20031;-85
2022/05/30 08:09:47;;;;;;;4.43;2.30;;;;;;;22.98;37.44;101348.63;4968933;28;20675;-85
2022/05/30 08:12:12;;;;;;;9.73;2.57;;;;;;;22.31;39.34;101349.56;4969586;28;20029;-84
2022/05/30 08:14:38;;;;;;;6.57;2.70;;;;;;;22.07;40.61;101354.59;4970762;28;20341;-85
2022/05/30 08:17:04;;;;;;;7.70;2.80;;;;;;;22.21;38.84;101356.38;4971351;28;20034;-84
2022/05/30 08:19:29;;;;;;;5.57;2.60;;;;;;;21.97;39.28;101359.63;4969515;28;20027;-84
2022/05/30 08:22:01;;;;;;;5.78;3.00;;;;;;;21.60;39.25;101354.91;4970991;28;20034;-84
2022/05/30 08:24:28;;;;;;;5.63;2.58;;;;;;;20.56;39.93;101360.19;4970814;28;20035;-84
2022/05/30 08:26:53;;;;;;;6.38;2.10;;;;;;;19.71;37.36;101357.88;4971113;28;20266;-84
2022/05/30 08:29:18;;;;;;;5.33;2.00;;;;;;;18.75;39.82;101363.72;4964225;28;20182;-79
2022/05/30 08:31:43;;;;;;;3.00;1.67;;;;;;;17.88;39.32;101367.81;4970881;28;20327;-79
2022/05/30 08:34:09;;;;;;;4.87;1.97;;;;;;;17.11;42.08;101369.44;4970640;28;20517;-79
2022/05/30 08:36:34;;;;;;;5.28;2.00;;;;;;;16.54;45.65;101370.88;4971164;28;20329;-78
2022/05/30 08:41:49;;;;;;;4.32;1.80;;;;;;;15.73;45.14;101367.91;4970592;28;20350;-78
2022/05/30 08:44:16;;;;;;;3.28;1.60;;;;;;;15.31;46.00;101372.88;4969994;28;20074;-78
2022/05/30 08:46:59;;;;;;;4.95;1.73;;;;;;;15.11;50.79;101370.09;4970566;28;20160;-78
2022/05/30 08:49:33;;;;;;;5.70;1.80;;;;;;;14.97;49.22;101365.34;4970384;28;20039;-78
2022/05/30 08:52:19;;;;;;;5.75;1.70;;;;;;;14.92;49.82;101371.63;4970558;28;20054;-78
2022/05/30 08:54:50;;;;;;;4.05;1.92;;;;;;;14.78;52.81;101373.81;4970500;28;20031;-78
2022/05/30 08:57:52;;;;;;;2.83;1.70;;;;;;;14.74;49.57;101370.44;4969794;28;20355;-78
2022/05/30 09:00:41;;;;;;;6.10;1.88;;;;;;;14.49;50.85;101380.81;4969357;28;20077;-78
2022/05/30 09:03:20;;;;;;;5.43;2.10;;;;;;;14.28;50.49;101375.38;4962014;28;20023;-78
2022/05/30 09:06:01;;;;;;;5.20;2.40;;;;;;;14.13;52.69;101377.53;4968789;28;20037;-78
2022/05/30 09:08:40;;;;;;;6.53;2.60;;;;;;;14.09;54.91;101386.38;4969919;28;20093;-77
2022/05/30 09:11:15;;;;;;;5.38;2.50;;;;;;;14.07;53.12;101384.69;4968768;28;20338;-78
2022/05/30 09:13:48;;;;;;;8.10;2.72;;;;;;;14.05;51.15;101389.97;4969905;28;20023;-78
2022/05/30 09:16:43;;;;;;;5.15;2.40;;;;;;;14.42;53.83;101378.44;4969992;28;20081;-78
2022/05/30 09:19:10;;;;;;;6.22;2.35;;;;;;;15.03;53.31;101379.94;4975891;28;20493;-78
2022/05/30 09:21:36;;;;;;;4.57;2.03;;;;;;;15.23;52.26;101374.91;4976337;28;20026;-78
2022/05/30 09:24:02;;;;;;;4.72;2.50;;;;;;;15.32;50.45;101384.19;4969685;28;20034;-78
2022/05/30 09:26:32;;;;;;;6.97;2.42;;;;;;;15.38;51.02;101374.38;4968423;28;20027;-78
2022/05/30 09:29:19;;;;;;;6.80;2.53;;;;;;;15.42;50.95;101380.34;4968384;28;20063;-78
2022/05/30 09:31:55;;;;;;;4.03;2.15;;;;;;;15.28;48.79;101380.84;4970968;28;20039;-77
2022/05/30 09:34:38;;;;;;;4.10;1.90;;;;;;;15.19;52.60;101385.50;4971841;28;20035;-78
2022/05/30 09:37:03;;;;;;;3.75;1.75;;;;;;;14.99;47.98;101379.19;4972879;28;20034;-78
2022/05/30 09:39:41;;;;;;;5.10;1.83;;;;;;;14.88;49.10;101381.28;4973259;28;20266;-78
2022/05/30 09:42:21;;;;;;;5.65;1.92;;;;;;;14.72;50.50;101384.47;4973243;28;20045;-78
2022/05/30 09:44:50;;;;;;;4.38;1.98;;;;;;;14.52;49.14;101390.31;4973510;28;20031;-78
2022/05/30 09:47:18;;;;;;;6.40;1.90;;;;;;;14.51;52.86;101380.78;4972985;28;20567;-78
2022/05/30 09:49:46;;;;;;;6.38;2.20;;;;;;;14.57;52.41;101376.22;4972012;28;20489;-78
2022/05/30 09:52:24;;;;;;;3.55;2.00;;;;;;;14.72;51.41;101387.06;4972794;28;20035;-78
2022/05/30 09:54:50;;;;;;;5.95;1.92;;;;;;;14.83;52.89;101380.59;4973252;28;20537;-78
2022/05/30 09:57:22;;;;;;;3.58;1.90;;;;;;;14.99;54.44;101386.19;4972872;28;20182;-78
2022/05/30 09:59:50;;;;;;;6.18;2.30;;;;;;;15.12;47.82;101390.09;4973371;28;20383;-78
2022/05/30 10:02:24;;;;;;;5.25;2.50;;;;;;;15.63;50.69;101381.34;4972792;28;20521;-78
2022/05/30 10:04:56;;;;;;;3.78;2.42;;;;;;;16.45;51.08;101378.25;4972963;28;20042;-78
2022/05/30 10:07:22;;;;;;;4.50;2.70;;;;;;;16.71;47.34;101378.13;4972670;28;20516;-78
2022/05/30 10:10:00;;;;;;;7.47;2.80;;;;;;;16.51;50.27;101383.25;4973311;28;20023;-78
2022/05/30 10:12:35;;;;;;;5.20;2.75;;;;;;;16.32;46.73;101385.72;4972793;28;20026;-78
2022/05/30 10:15:18;;;;;;;9.20;2.70;;;;;;;16.00;46.20;101386.09;4972689;28;20015;-78
2022/05/30 10:17:44;;;;;;;6.15;2.78;;;;;;;15.75;47.01;101388.78;4961024;28;20118;-78
2022/05/30 10:20:13;;;;;;;7.20;2.67;;;;;;;15.57;50.74;101392.88;4972026;28;20532;-78
2022/05/30 10:28:54;;;;;;;4.60;2.58;;;;;;;15.33;48.96;101380.66;4972835;28;20401;-78
2022/05/30 10:31:49;;;;;;;5.65;2.70;;;;;;;15.29;49.88;101377.28;4972486;28;20023;-78
2022/05/30 10:34:14;;;;;;;6.32;2.50;;;;;;;15.34;53.02;101383.22;4970825;28;20560;-78
2022/05/30 10:36:52;;;;;;;4.50;2.00;;;;;;;15.35;52.03;101381.47;4972314;28;20110;-78
2022/05/30 10:39:23;;;;;;;6.50;2.22;;;;;;;15.41;47.44;101383.88;4972159;28;20195;-78
2022/05/30 10:41:59;;;;;;;4.95;2.17;;;;;;;15.40;48.30;101382.16;4970969;28;20113;-78
2022/05/30 10:44:33;;;;;;;3.85;2.17;;;;;;;15.52;48.45;101383.47;4970734;28;20026;-78
2022/05/30 10:47:07;;;;;;;3.85;2.22;;;;;;;15.68;51.97;101388.16;4972153;28;20054;-78
2022/05/30 10:49:35;;;;;;;;;;;;;;;15.89;50.98;101389.13;4971219;28;20035;-78
2022/05/30 10:52:29;;;;;;;6.75;2.50;;;;;;;15.89;48.44;101385.66;4972269;28;20423;-78
2022/05/30 10:54:59;;;;;;;5.07;2.60;;;;;;;16.06;47.27;101391.09;4972428;28;20106;-78
2022/05/30 10:57:42;;;;;;;5.68;2.35;;;;;;;16.53;49.29;101392.72;4971825;28;20093;-78
2022/05/30 11:00:25;;;;;;;4.90;2.40;;;;;;;16.99;48.09;101388.28;4971717;28;20114;-78
2022/05/30 11:03:11;;;;;;;6.65;2.45;;;;;;;17.20;45.16;101395.25;4969136;28;20030;-78
2022/05/30 11:06:05;;;;;;;5.57;2.30;;;;;;;17.36;44.91;101387.59;4970117;28;20022;-78
2022/05/30 11:08:50;;;;;;;6.45;2.50;;;;;;;17.32;43.54;101386.88;4962058;28;20061;-78
2022/05/30 11:11:23;;;;;;;5.88;2.70;;;;;;;17.11;40.84;101390.41;4971835;28;20564;-78
2022/05/30 11:14:04;;;;;;;6.25;2.55;;;;;;;16.95;41.60;101386.72;4971803;28;20037;-78
2022/05/30 11:16:47;;;;;;;4.80;2.15;;;;;;;16.69;41.22;101384.31;4971802;28;20019;-78
2022/05/30 11:19:23;;;;;;;5.22;2.25;;;;;;;16.46;45.82;101379.94;4971528;28;20425;-79
2022/05/30 11:22:13;;;;;;;4.10;2.20;;;;;;;16.65;45.68;101380.94;4970201;28;20106;-79
2022/05/30 11:24:39;;;;;;;5.55;2.40;;;;;;;16.50;45.26;101385.03;4970235;28;20038;-78
2022/05/30 11:27:19;;;;;;;4.50;2.40;;;;;;;16.45;46.39;101386.94;4969987;28;20029;-79
2022/05/30 11:30:03;;;;;;;6.18;2.45;;;;;;;16.29;47.29;101379.78;4971570;28;20405;-79
2022/05/30 11:32:49;;;;;;;5.77;2.33;;;;;;;16.17;46.40;101383.72;4971135;28;20125;-79
2022/05/30 11:35:32;;;;;;;5.65;2.08;;;;;;;16.05;49.95;101379.78;4971385;28;20015;-79
2022/05/30 11:38:22;;;;;;;5.45;2.30;;;;;;;16.05;47.84;101386.78;4961065;28;20139;-79
2022/05/30 11:40:57;;;;;;;4.82;1.85;;;;;;;16.08;48.84;101379.69;4971119;28;20477;-78
2022/05/30 11:43:25;;;;;;;;;;;;;;;16.21;49.72;101382.69;4970014;28;20046;-79
2022/05/30 11:46:04;;;;;;;4.93;1.67;;;;;;;16.10;47.56;101375.22;4969451;28;19940;-79
2022/05/30 11:48:43;;;;;;;3.78;1.70;;;;;;;16.20;48.94;101373.97;4969715;28;20350;-78
2022/05/30 11:51:35;;;;;;;5.18;1.80;;;;;;;16.46;46.87;101391.28;4958320;28;20047;-78